Bookmark and Share
Track history (hours):
 

Milos

Last reported at 2014-Apr-21 03:26 UTC. Time now 2014-Apr-24 02:20 UTC.
Position S 33°11' E 017°43'.

Length 190 m; draft 6.9 m.

Type: Cargo ship. MMSI: 636014358.

NotesDate/timePositionNaut miles runAvg speedWind from/ knotsBaromVisibWave heightAir tempDewpointWater temp
2014-Apr-21 03:26S 33°11' E 017°43'10 5.2
2014-Apr-21 01:33S 33°20' E 017°48'5 5.4
2014-Apr-21 00:33S 33°23' E 017°53'1311.2
2014-Apr-20 23:25S 33°35' E 017°56'2912.5
2014-Apr-20 21:08S 34°03' E 018°03'812.5
2014-Apr-20 20:32S 34°10' E 018°06'1613.0
2014-Apr-20 19:19S 34°24' E 018°14'1013.3
2014-Apr-20 18:32S 34°31' E 018°24'1313.1
2014-Apr-20 17:32S 34°39' E 018°36'1313.1
2014-Apr-20 16:32S 34°48' E 018°49'14511.8
2014-Apr-20 04:19S 35°18' E 021°42'30012.0
2014-Apr-19 03:20S 33°48' E 027°28'15012.6
2014-Apr-18 15:28S 32°04' E 029°38'11814.3
2014-Apr-18 07:14S 30°31' E 031°03'913.7
2014-Apr-18 06:33S 30°23' E 031°07'1413.8
2014-Apr-18 05:33S 30°11' E 031°15'1514.8
2014-Apr-18 04:33S 30°00' E 031°27'1414.6
2014-Apr-18 03:33S 29°48' E 031°37'1414.1
2014-Apr-18 02:33S 29°36' E 031°45'1313.5
2014-Apr-18 01:33S 29°25' E 031°53'1412.3
2014-Apr-18 00:26S 29°13' E 032°01'  
2014-Apr-13 14:32S 28°48' E 032°02'0 0.0
2014-Apr-13 13:26S 28°48' E 032°02'  

Dump ship's entire track history

sailing weather and tide predictions

Milos — A8TH8 — position and weather